createdAt,value
2022-09-04T00:00:08.704Z,100722.91
2022-09-04T00:03:15.111Z,100721.47
2022-09-04T00:05:51.430Z,100734.53
2022-09-04T00:08:24.078Z,100730.63
2022-09-04T00:11:00.613Z,100727.56
2022-09-04T00:13:36.924Z,100736.75
2022-09-04T00:16:08.851Z,100737.59
2022-09-04T00:18:38.930Z,100729.59
2022-09-04T00:21:27.480Z,100741.69
2022-09-04T00:24:00.115Z,100742.06
2022-09-04T00:26:59.177Z,100738.72
2022-09-04T00:29:41.088Z,100742.16
2022-09-04T00:32:40.825Z,100746.50
2022-09-04T00:35:19.820Z,100750.06
2022-09-04T00:38:13.003Z,100729.22
2022-09-04T00:40:43.608Z,100752.47
2022-09-04T00:43:44.390Z,100749.13
2022-09-04T00:46:30.252Z,100752.66
2022-09-04T00:49:02.899Z,100749.81
2022-09-04T00:51:43.311Z,100756.16
2022-09-04T00:54:28.174Z,100754.09
2022-09-04T00:57:10.992Z,100758.31
2022-09-04T01:00:06.692Z,100763.53
2022-09-04T01:03:04.027Z,100759.25
2022-09-04T01:05:40.445Z,100765.47
2022-09-04T01:08:21.987Z,100767.59
2022-09-04T01:11:44.618Z,100762.19
2022-09-04T01:14:38.390Z,100748.84
2022-09-04T01:17:37.656Z,100771.31
2022-09-04T01:20:16.541Z,100779.56
2022-09-04T01:22:58.740Z,100775.56
2022-09-04T01:25:55.144Z,100774.00
2022-09-04T01:28:50.922Z,100776.88
2022-09-04T01:31:23.504Z,100778.38
2022-09-04T01:34:35.401Z,100776.16
2022-09-04T01:37:31.160Z,100751.06
2022-09-04T01:40:24.173Z,100774.25
2022-09-04T01:43:22.804Z,100772.84
2022-09-04T01:46:08.145Z,100771.75
2022-09-04T01:48:41.249Z,100733.31
2022-09-04T01:51:22.974Z,100773.59
2022-09-04T01:54:01.847Z,100756.28
2022-09-04T01:56:43.100Z,100745.97
2022-09-04T01:59:32.965Z,100751.00
2022-09-04T02:02:30.858Z,100772.78
2022-09-04T02:05:21.575Z,100774.63
2022-09-04T02:07:58.778Z,100782.56
2022-09-04T02:10:28.985Z,100776.38
2022-09-04T02:13:07.245Z,100777.00
2022-09-04T02:15:39.275Z,100782.69
2022-09-04T02:18:24.773Z,100791.66
2022-09-04T02:21:00.183Z,100786.34
2022-09-04T02:23:40.713Z,100793.63
2022-09-04T02:26:10.294Z,100794.47
2022-09-04T02:28:48.514Z,100788.25
2022-09-04T02:31:19.447Z,100781.06
2022-09-04T02:33:54.585Z,100791.97
2022-09-04T02:36:27.707Z,100794.06
2022-09-04T02:39:13.102Z,100800.72
2022-09-04T02:41:43.142Z,100809.47
2022-09-04T02:44:25.384Z,100799.88
2022-09-04T02:47:20.412Z,100779.19
2022-09-04T02:50:04.356Z,100810.88
2022-09-04T02:52:49.439Z,100808.66
2022-09-04T02:55:48.206Z,100807.03
2022-09-04T02:58:25.941Z,100811.41
2022-09-04T03:00:54.327Z,100810.19
2022-09-04T03:03:47.540Z,100814.41
2022-09-04T03:06:52.387Z,100826.31
2022-09-04T03:09:49.723Z,100819.56
2022-09-04T03:12:35.033Z,100822.59
2022-09-04T03:15:22.657Z,100820.53
2022-09-04T03:18:16.801Z,100828.81
2022-09-04T03:20:49.774Z,100832.50
2022-09-04T03:23:39.903Z,100835.16
2022-09-04T03:26:16.925Z,100814.22
2022-09-04T03:29:10.200Z,100841.88
2022-09-04T03:31:51.822Z,100843.25
2022-09-04T03:34:26.863Z,100841.41
2022-09-04T03:37:27.551Z,100842.25
2022-09-04T03:39:57.071Z,100840.38
2022-09-04T03:42:39.528Z,100831.03
2022-09-04T03:45:12.358Z,100839.75
2022-09-04T03:47:57.089Z,100839.38
2022-09-04T03:50:36.020Z,100842.75
2022-09-04T03:53:14.183Z,100820.94
2022-09-04T03:56:11.594Z,100844.63
2022-09-04T03:58:41.075Z,100841.09
2022-09-04T04:01:37.186Z,100843.81
2022-09-04T04:04:09.628Z,100851.88
2022-09-04T04:06:42.023Z,100840.13
2022-09-04T04:09:18.749Z,100851.88
2022-09-04T04:11:57.470Z,100857.41
2022-09-04T04:14:47.130Z,100855.41
2022-09-04T04:17:32.498Z,100853.88
2022-09-04T04:20:05.177Z,100852.03
2022-09-04T04:23:02.926Z,100860.94
2022-09-04T04:25:52.412Z,100857.72
2022-09-04T04:28:24.459Z,100858.75
2022-09-04T04:30:54.426Z,100839.91
2022-09-04T04:33:42.050Z,100873.69
2022-09-04T04:36:17.690Z,100866.66
2022-09-04T04:38:53.357Z,100831.69
2022-09-04T04:41:23.330Z,100868.19
2022-09-04T04:43:52.846Z,100871.69
2022-09-04T04:46:40.611Z,100853.22
2022-09-04T04:49:18.940Z,100867.00
2022-09-04T04:51:48.191Z,100874.22
2022-09-04T04:54:31.091Z,100875.75
2022-09-04T04:57:23.573Z,100884.47
2022-09-04T05:00:07.739Z,100888.84
2022-09-04T05:02:40.508Z,100890.03
2022-09-04T05:05:24.287Z,100897.28
2022-09-04T05:08:08.027Z,100908.03
2022-09-04T05:10:40.727Z,100912.03
2022-09-04T05:13:14.257Z,100909.72
2022-09-04T05:16:09.906Z,100907.66
2022-09-04T05:18:48.727Z,100911.19
2022-09-04T05:21:48.864Z,100911.69
2022-09-04T05:24:22.821Z,100908.31
2022-09-04T05:27:00.797Z,100912.84
2022-09-04T05:30:02.700Z,100922.44
2022-09-04T05:32:55.634Z,100927.50
2022-09-04T05:35:37.260Z,100929.84
2022-09-04T05:38:06.785Z,100933.38
2022-09-04T05:40:55.529Z,100934.00
2022-09-04T05:43:43.878Z,100942.22
2022-09-04T05:46:32.101Z,100943.13
2022-09-04T05:49:13.955Z,100916.19
2022-09-04T05:52:00.717Z,100949.31
2022-09-04T05:54:39.664Z,100961.59
2022-09-04T05:57:26.862Z,100966.09
2022-09-04T06:00:18.477Z,100965.19
2022-09-04T06:02:54.301Z,100969.22
2022-09-04T06:05:47.088Z,100974.69
2022-09-04T06:08:38.765Z,100969.44
2022-09-04T06:11:24.069Z,100970.56
2022-09-04T06:14:05.806Z,100976.50
2022-09-04T06:16:41.661Z,100974.66
2022-09-04T06:19:31.211Z,100984.59
2022-09-04T06:22:08.741Z,100945.38
2022-09-04T06:25:13.880Z,100986.88
2022-09-04T06:27:44.998Z,100985.41
2022-09-04T06:30:13.834Z,100974.69
2022-09-04T06:32:59.188Z,100984.31
2022-09-04T06:35:38.031Z,100992.38
2022-09-04T06:38:22.548Z,100991.53
2022-09-04T06:40:51.754Z,100992.88
2022-09-04T06:43:40.555Z,100990.28
2022-09-04T06:46:23.880Z,100987.16
2022-09-04T06:49:10.961Z,100995.06
2022-09-04T06:51:55.718Z,100991.50
2022-09-04T06:54:32.221Z,100990.09
2022-09-04T06:57:11.166Z,100983.91
2022-09-04T07:00:13.093Z,100987.09
2022-09-04T07:02:48.403Z,100996.63
2022-09-04T07:05:43.421Z,101003.34
2022-09-04T07:08:30.747Z,100978.50
2022-09-04T07:11:28.425Z,101005.81
2022-09-04T07:14:20.141Z,101014.63
2022-09-04T07:16:53.654Z,101009.44
2022-09-04T07:19:38.711Z,101007.47
2022-09-04T07:22:22.861Z,101011.59
2022-09-04T07:25:07.752Z,101015.69
2022-09-04T07:27:49.870Z,101017.44
2022-09-04T07:30:17.495Z,101022.69
2022-09-04T07:32:51.107Z,101025.22
2022-09-04T07:35:42.004Z,101016.91
2022-09-04T07:38:32.397Z,101012.97
2022-09-04T07:41:28.344Z,101007.13
2022-09-04T07:44:06.781Z,100979.56
2022-09-04T07:47:13.392Z,101024.03
2022-09-04T07:49:50.602Z,101024.91
2022-09-04T07:52:18.631Z,101033.06
2022-09-04T07:55:00.836Z,101003.72
2022-09-04T07:57:52.078Z,101029.13
2022-09-04T08:00:21.010Z,101023.94
2022-09-04T08:03:11.857Z,101039.75
2022-09-04T08:05:48.265Z,101042.41
2022-09-04T08:08:42.756Z,101051.81
2022-09-04T08:11:27.727Z,101048.28
2022-09-04T08:14:12.949Z,101052.66
2022-09-04T08:17:03.449Z,101053.53
2022-09-04T08:20:02.432Z,101059.72
2022-09-04T08:23:12.387Z,101065.06
2022-09-04T08:26:12.086Z,101053.56
2022-09-04T08:29:07.238Z,101058.38
2022-09-04T08:31:55.370Z,101059.28
2022-09-04T08:34:53.012Z,101029.72
2022-09-04T08:37:58.378Z,101054.59
2022-09-04T08:40:36.993Z,101061.72
2022-09-04T08:43:24.962Z,101056.44
2022-09-04T08:46:13.358Z,101057.81
2022-09-04T08:49:21.671Z,101069.28
2022-09-04T08:52:00.938Z,101073.47
2022-09-04T08:55:11.506Z,101072.63
2022-09-04T08:57:56.578Z,101064.63
2022-09-04T09:00:47.057Z,101037.28
2022-09-04T09:03:29.572Z,101072.53
2022-09-04T09:06:33.526Z,101069.66
2022-09-04T09:09:18.564Z,101065.88
2022-09-04T09:12:42.714Z,101069.56
2022-09-04T09:15:40.205Z,101067.47
2022-09-04T09:18:18.089Z,101058.38
2022-09-04T09:21:30.466Z,101059.53
2022-09-04T09:24:23.551Z,101062.94
2022-09-04T09:26:57.675Z,101060.19
2022-09-04T09:29:34.043Z,101058.66
2022-09-04T09:32:16.462Z,101061.59
2022-09-04T09:35:08.947Z,101063.94
2022-09-04T09:38:10.894Z,101048.78
2022-09-04T09:41:00.454Z,101038.31
2022-09-04T09:43:36.768Z,101038.69
2022-09-04T09:46:21.565Z,101032.97
2022-09-04T09:49:14.980Z,101032.25
2022-09-04T09:52:05.560Z,101024.28
2022-09-04T09:55:03.382Z,101022.00
2022-09-04T09:57:48.122Z,101010.44
2022-09-04T10:00:19.832Z,100999.56
2022-09-04T10:03:01.715Z,101017.00
2022-09-04T10:05:28.286Z,101014.13
2022-09-04T10:08:17.990Z,101011.59
2022-09-04T10:11:09.780Z,101019.31
2022-09-04T10:14:03.794Z,101016.38
2022-09-04T10:16:33.343Z,101016.91
2022-09-04T10:19:18.369Z,101015.91
2022-09-04T10:22:00.065Z,101024.28
2022-09-04T10:24:58.833Z,100998.81
2022-09-04T10:27:41.792Z,101024.19
2022-09-04T10:30:15.820Z,101009.97
2022-09-04T10:33:08.007Z,101016.88
2022-09-04T10:35:57.018Z,101023.75
2022-09-04T10:38:58.557Z,101013.03
2022-09-04T10:41:51.191Z,101024.00
2022-09-04T10:44:30.444Z,101025.31
2022-09-04T10:47:02.887Z,101010.19
2022-09-04T10:49:39.400Z,101011.09
2022-09-04T10:52:21.762Z,100998.41
2022-09-04T10:55:13.807Z,101015.91
2022-09-04T10:57:47.954Z,101015.66
2022-09-04T11:00:51.271Z,101014.13
2022-09-04T11:03:34.943Z,101018.44
2022-09-04T11:06:25.873Z,101014.88
2022-09-04T11:09:04.732Z,101005.75
2022-09-04T11:11:54.972Z,101010.16
2022-09-04T11:14:28.891Z,101009.88
2022-09-04T11:17:17.026Z,101010.94
2022-09-04T11:20:23.708Z,101010.41
2022-09-04T11:23:08.896Z,101002.78
2022-09-04T11:26:05.997Z,100997.06
2022-09-04T11:29:23.219Z,101000.38
2022-09-04T11:32:08.094Z,100997.88
2022-09-04T11:34:50.301Z,100983.56
2022-09-04T11:37:37.902Z,100993.69
2022-09-04T11:40:16.408Z,100990.66
2022-09-04T11:43:15.366Z,100988.63
2022-09-04T11:45:51.945Z,100984.81
2022-09-04T11:48:44.728Z,100988.19
2022-09-04T11:51:48.571Z,100990.81
2022-09-04T11:54:41.288Z,100989.78
2022-09-04T11:57:13.444Z,100994.13
2022-09-04T12:00:11.464Z,100982.38
2022-09-04T12:03:16.793Z,100985.53
2022-09-04T12:06:35.396Z,100994.53
2022-09-04T12:09:07.094Z,100990.41
2022-09-04T12:11:36.427Z,100983.22
2022-09-04T12:14:09.426Z,100989.28
2022-09-04T12:17:01.397Z,100995.31
2022-09-04T12:19:30.914Z,100991.84
2022-09-04T12:22:36.384Z,100998.97
2022-09-04T12:25:18.146Z,101002.03
2022-09-04T12:27:56.807Z,100998.69
2022-09-04T12:30:30.761Z,100995.50
2022-09-04T12:33:03.514Z,101014.75
2022-09-04T12:36:04.157Z,101009.59
2022-09-04T12:38:37.539Z,101013.97
2022-09-04T12:41:06.275Z,101010.03
2022-09-04T12:43:43.055Z,101005.13
2022-09-04T12:46:18.232Z,101011.63
2022-09-04T12:49:03.558Z,101003.25
2022-09-04T12:51:44.698Z,101000.25
2022-09-04T12:54:17.566Z,101016.16
2022-09-04T12:57:11.629Z,101019.03
2022-09-04T12:59:57.236Z,101011.78
2022-09-04T13:02:34.068Z,101006.22
2022-09-04T13:05:11.407Z,101010.81
2022-09-04T13:08:11.610Z,101011.03
2022-09-04T13:10:53.389Z,101010.63
2022-09-04T13:13:58.243Z,101012.81
2022-09-04T13:16:33.141Z,101009.03
2022-09-04T13:19:16.246Z,101010.59
2022-09-04T13:21:56.424Z,101023.50
2022-09-04T13:24:28.030Z,101027.72
2022-09-04T13:27:26.622Z,101029.94
2022-09-04T13:30:09.907Z,101028.63
2022-09-04T13:32:55.141Z,101028.09
2022-09-04T13:35:47.913Z,101035.69
2022-09-04T13:38:26.014Z,101028.59
2022-09-04T13:41:20.491Z,101033.88
2022-09-04T13:44:08.620Z,101034.78
2022-09-04T13:46:40.105Z,101018.25
2022-09-04T13:49:20.181Z,101024.09
2022-09-04T13:52:08.677Z,101030.00
2022-09-04T13:54:47.697Z,101031.25
2022-09-04T13:57:25.855Z,101034.94
2022-09-04T13:59:55.419Z,100999.56
2022-09-04T14:02:25.386Z,101030.38
2022-09-04T14:05:04.849Z,101034.66
2022-09-04T14:07:36.101Z,101029.88
2022-09-04T14:10:10.984Z,101033.59
2022-09-04T14:13:03.180Z,101035.91
2022-09-04T14:15:32.845Z,101030.44
2022-09-04T14:18:35.135Z,101036.28
2022-09-04T14:21:43.486Z,101032.19
2022-09-04T14:24:42.086Z,101038.94
2022-09-04T14:27:22.536Z,101037.53
2022-09-04T14:30:24.304Z,101030.50
2022-09-04T14:33:05.010Z,101029.50
2022-09-04T14:36:00.287Z,101033.84
2022-09-04T14:38:31.409Z,101032.66
2022-09-04T14:41:23.729Z,101029.16
2022-09-04T14:43:59.403Z,101039.47
2022-09-04T14:46:46.526Z,101031.66
2022-09-04T14:49:21.332Z,101041.06
2022-09-04T14:51:49.319Z,101038.22
2022-09-04T14:54:19.230Z,101043.81
2022-09-04T14:56:55.077Z,101035.66
2022-09-04T14:59:37.498Z,101033.84
2022-09-04T15:02:13.102Z,101028.13
2022-09-04T15:05:14.399Z,101013.53
2022-09-04T15:07:43.871Z,101028.56
2022-09-04T15:10:28.549Z,101035.28
2022-09-04T15:13:35.292Z,101037.59
2022-09-04T15:16:16.361Z,101039.78
2022-09-04T15:19:03.583Z,101041.78
2022-09-04T15:22:05.670Z,101032.38
2022-09-04T15:24:44.437Z,101034.28
2022-09-04T15:27:16.435Z,101033.28
2022-09-04T15:29:51.853Z,101042.25
2022-09-04T15:32:21.566Z,101041.78
2022-09-04T15:34:49.478Z,101038.59
2022-09-04T15:37:22.377Z,101046.63
2022-09-04T15:39:53.923Z,101043.06
2022-09-04T15:42:46.999Z,101047.97
2022-09-04T15:45:22.702Z,101038.09
2022-09-04T15:47:55.797Z,101047.22
2022-09-04T15:50:28.042Z,101030.72
2022-09-04T15:53:49.362Z,101043.31
2022-09-04T15:56:15.867Z,101046.06
2022-09-04T15:58:49.212Z,101041.13
2022-09-04T16:01:20.663Z,101027.44
2022-09-04T16:04:21.905Z,101025.81
2022-09-04T16:06:57.695Z,101038.94
2022-09-04T16:09:31.040Z,101027.00
2022-09-04T16:12:02.511Z,101039.31
2022-09-04T16:14:35.824Z,101040.41
2022-09-04T16:17:12.046Z,101015.75
2022-09-04T16:19:43.639Z,101020.22
2022-09-04T16:22:26.630Z,101034.91
2022-09-04T16:25:11.812Z,101039.53
2022-09-04T16:27:51.099Z,101023.19
2022-09-04T16:30:31.061Z,101043.84
2022-09-04T16:32:58.467Z,101037.34
2022-09-04T16:35:26.110Z,101047.31
2022-09-04T16:38:19.918Z,101006.78
2022-09-04T16:41:06.639Z,101045.41
2022-09-04T16:43:34.267Z,101038.03
2022-09-04T16:46:25.289Z,101046.59
2022-09-04T16:48:57.832Z,101046.72
2022-09-04T16:51:39.401Z,101051.34
2022-09-04T16:54:08.464Z,101041.72
2022-09-04T16:56:42.840Z,101052.06
2022-09-04T16:59:24.996Z,101046.81
2022-09-04T17:01:57.998Z,101053.38
2022-09-04T17:04:40.437Z,101034.41
2022-09-04T17:07:11.044Z,101054.06
2022-09-04T17:09:56.953Z,101061.41
2022-09-04T17:12:32.846Z,101054.41
2022-09-04T17:15:11.180Z,101059.03
2022-09-04T17:17:41.488Z,101054.94
2022-09-04T17:20:21.820Z,101049.97
2022-09-04T17:29:03.412Z,101057.00
2022-09-04T17:29:09.381Z,101052.75
2022-09-04T17:29:15.595Z,101055.06
2022-09-04T17:31:48.215Z,101052.94
2022-09-04T17:39:57.351Z,101057.50
2022-09-04T17:40:50.441Z,101057.19
2022-09-04T17:40:53.605Z,101058.03
2022-09-04T17:44:02.206Z,101068.41
2022-09-04T17:46:43.946Z,101054.47
2022-09-04T17:49:21.842Z,101041.56
2022-09-04T17:51:58.847Z,101064.94
2022-09-04T17:54:31.235Z,101070.38
2022-09-04T17:57:01.637Z,101059.31
2022-09-04T17:59:35.371Z,101057.81
2022-09-04T18:02:12.607Z,101046.88
2022-09-04T18:04:47.173Z,101061.50
2022-09-04T18:08:07.391Z,101062.66
2022-09-04T18:10:31.283Z,101061.91
2022-09-04T18:13:36.239Z,101070.53
2022-09-04T18:16:24.861Z,101074.59
2022-09-04T18:18:51.477Z,101074.25
2022-09-04T18:21:28.362Z,101080.88
2022-09-04T18:24:00.666Z,101088.16
2022-09-04T18:26:40.518Z,101086.44
2022-09-04T18:32:09.940Z,101089.84
2022-09-04T18:37:22.287Z,101102.25
2022-09-04T18:37:25.319Z,101090.91
2022-09-04T18:38:29.490Z,101096.16
2022-09-04T18:47:28.801Z,101101.00
2022-09-04T18:50:24.611Z,101102.03
2022-09-04T18:50:36.803Z,101105.28
2022-09-04T18:50:45.116Z,101105.09
2022-09-04T18:52:15.885Z,101109.59
2022-09-04T18:54:47.834Z,101096.31
2022-09-04T18:57:29.425Z,101110.94
2022-09-04T19:00:28.984Z,101116.78
2022-09-04T19:03:07.741Z,101096.91
2022-09-04T19:05:44.859Z,101125.00
2022-09-04T19:08:19.870Z,101096.94
2022-09-04T19:10:53.632Z,101105.31
2022-09-04T19:13:29.108Z,101125.59
2022-09-04T19:16:01.393Z,101131.19
2022-09-04T19:18:48.971Z,101129.69
2022-09-04T19:21:35.799Z,101131.19
2022-09-04T19:24:13.033Z,101132.53
2022-09-04T19:26:44.180Z,101135.88
2022-09-04T19:29:19.283Z,101138.69
2022-09-04T19:32:01.138Z,101138.69
2022-09-04T19:34:40.360Z,101134.31
2022-09-04T19:42:25.584Z,101131.41
2022-09-04T19:46:04.359Z,101129.28
2022-09-04T19:46:17.179Z,101136.38
2022-09-04T19:47:28.524Z,101133.66
2022-09-04T19:53:20.305Z,101136.84
2022-09-04T19:53:37.381Z,101135.56
2022-09-04T19:56:30.571Z,101130.13
2022-09-04T19:59:05.425Z,101138.91
2022-09-04T20:01:50.984Z,101139.34
2022-09-04T20:04:34.648Z,101142.69
2022-09-04T20:07:09.825Z,101128.88
2022-09-04T20:09:44.801Z,101150.41
2022-09-04T20:12:26.734Z,101141.03
2022-09-04T20:15:18.186Z,101131.00
2022-09-04T20:18:09.809Z,101134.31
2022-09-04T20:20:56.267Z,101148.34
2022-09-04T20:23:37.073Z,101150.63
2022-09-04T20:26:07.895Z,101116.06
2022-09-04T20:28:48.444Z,101152.50
2022-09-04T20:31:36.295Z,101153.13
2022-09-04T20:34:32.087Z,101152.88
2022-09-04T20:37:01.649Z,101160.19
2022-09-04T20:39:35.022Z,101132.31
2022-09-04T20:42:06.390Z,101153.66
2022-09-04T20:48:12.587Z,101158.66
2022-09-04T20:52:45.459Z,101159.28
2022-09-04T20:52:58.058Z,101166.78
2022-09-04T20:53:52.764Z,101132.03
2022-09-04T20:59:32.206Z,101156.44
2022-09-04T21:03:18.901Z,101164.59
2022-09-04T21:03:29.950Z,101167.00
2022-09-04T21:06:10.375Z,101167.06
2022-09-04T21:08:52.080Z,101165.91
2022-09-04T21:11:54.605Z,101166.34
2022-09-04T21:14:44.910Z,101147.00
2022-09-04T21:17:33.517Z,101173.44
2022-09-04T21:20:04.885Z,101163.09
2022-09-04T21:23:05.850Z,101169.16
2022-09-04T21:25:56.487Z,101178.16
2022-09-04T21:28:22.999Z,101183.16
2022-09-04T21:31:14.538Z,101186.31
2022-09-04T21:33:59.782Z,101185.66
2022-09-04T21:36:33.625Z,101187.81
2022-09-04T21:39:17.329Z,101180.84
2022-09-04T21:41:59.100Z,101180.50
2022-09-04T21:44:36.204Z,101152.22
2022-09-04T21:47:08.368Z,101190.63
2022-09-04T21:49:47.330Z,101185.06
2022-09-04T21:52:32.299Z,101182.59
2022-09-04T21:57:25.922Z,101174.66
2022-09-04T22:02:36.672Z,101190.78
2022-09-04T22:02:39.686Z,101194.03
2022-09-04T22:04:18.883Z,101197.38
2022-09-04T22:10:52.832Z,101186.31
2022-09-04T22:13:39.193Z,101189.94
2022-09-04T22:13:50.815Z,101200.03
2022-09-04T22:16:31.984Z,101186.97
2022-09-04T22:19:16.398Z,101188.81
2022-09-04T22:21:49.511Z,101190.81
2022-09-04T22:24:31.151Z,101183.94
2022-09-04T22:27:22.770Z,101200.53
2022-09-04T22:29:51.011Z,101201.66
2022-09-04T22:32:29.407Z,101197.69
2022-09-04T22:35:36.416Z,101174.75
2022-09-04T22:38:18.033Z,101207.44
2022-09-04T22:41:06.291Z,101207.91
2022-09-04T22:43:45.334Z,101214.41
2022-09-04T22:46:32.645Z,101204.47
2022-09-04T22:49:12.120Z,101212.78
2022-09-04T22:52:01.657Z,101212.97
2022-09-04T22:54:48.592Z,101205.25
2022-09-04T22:57:33.021Z,101208.69
2022-09-04T23:00:16.784Z,101207.25
2022-09-04T23:03:08.134Z,101217.78
2022-09-04T23:05:35.605Z,101209.53
2022-09-04T23:13:44.816Z,101206.66
2022-09-04T23:13:47.316Z,101213.44
2022-09-04T23:14:19.756Z,101208.22
2022-09-04T23:17:02.105Z,101197.97
2022-09-04T23:26:31.212Z,101209.75
2022-09-04T23:26:44.143Z,101206.31
2022-09-04T23:26:49.396Z,101208.44
2022-09-04T23:29:15.875Z,101207.88
2022-09-04T23:32:07.326Z,101203.88
2022-09-04T23:35:13.738Z,101165.16
2022-09-04T23:38:00.194Z,101206.72
2022-09-04T23:40:34.969Z,101208.47
2022-09-04T23:43:42.777Z,101211.53
2022-09-04T23:46:28.106Z,101208.00
2022-09-04T23:49:23.923Z,101210.78
2022-09-04T23:52:08.544Z,101210.22
2022-09-04T23:54:51.802Z,101215.25
2022-09-04T23:57:26.708Z,101215.94
